Gustavsfors, Sweden

11:58 AM CEST on August 30, 2015 (GMT +0200)
Jonsarna, Ransbysatter, Varmland, Sweden | | Change Station
CLOSE
Current Station
Personal Weather Station
Location: Värmland County, VäRMLAND COUNTY
Elevation: 427 ft
Nearby Weather Stations

Elev 427 ft 60.03 °N, 13.24 °E | Updated 1 minute ago

Partly Cloudy
Partly Cloudy
70.5 °F
Feels Like 77 °F
N
2.0
Wind Variable Wind from West
Gusts 2.0 mph

Today
High -- | Low -- °F
--% Chance of Precip.
Yesterday
High -- | Low -- °F
Precip. -- in
5:53 AM 8:15 PM
Full, 99% visible
Pressure 30.06 in
Visibility 6.2 miles
Clouds Few 2600 ft
Heat Index 77 °F
Dew Point 53 °F
Humidity 54%
Rainfall 0.00 in
Snow Depth Not available.
UV 5.0 out of 12
Pollen Not available.
Air Quality Not available.
Flu Activity Not available.
METAR ESOK 300950Z AUTO 23009KT 9999 FEW026/// 17/11 Q1018
Pressure 30.06 in
Visibility 6.2 miles
Clouds Few 2600 ft
Heat Index 77 °F
Dew Point 53 °F
Humidity 54%
Rainfall 0.00 in
Snow Depth Not available.
UV 5.0 out of 12
Pollen Not available.
Air Quality Not available.
Flu Activity Not available.
METAR ESOK 300950Z AUTO 23009KT 9999 FEW026/// 17/11 Q1018

10-Day Weather Forecast

×

Almanac

Astronomy

Aug. 30, 2015 Rise Set
Actual Time
Civil Twilight
Nautical Twilight
Astronomical Twilight
Moon
Length of Visible Light
Length of Day
Tomorrow will be .
, % of the Moon is Illuminated

Today's Extremes

Country Highs Country Lows

Community

WunderPhotos

Upload Photos

1,850,919 photos uploaded!

WunderBlogs® & News

Nearby

Air Quality

  Air Quality AQ Index Pollutant
Not available.

Snow Depth

Station Depth Elevation

Earthquake Activity

City Distance Mag. Time & Date
Minimum magnitude displayed is 2.5.

Coastal Water Temperatures

Place Temperature

Stations

Nearby Weather Stations

Station Location Temp. Windchill Dew Point Humidity Wind Precip. Elev Updated Type